• Join FlightAware (Why Join?)
  • Login
  • US Flag 
06:52AM EST


 

Airport Tracker/Info


-or-


 

Live Flight TrackerFlight Track Log ✈ ANO333 ✈ 01-Jul-2013 ✈ YPKU / KNX - YPDN / DRW

Flight Track Log - Related Links

Times and Time Zones

All times are in EDT time to prevent confusion due to time zone crossing. See the ANO333 flight status page for this flight to view local times or setup timezone preferences in your user account.

Time Position Orientation Groundspeed Altitude Reporting Facility
EDT Latitude Longitude Course Direction KTS MPH feet Rate Location/Type
03:01AM -15.2903 129.0319 33° Northeast 31,000  Level Aus ATC (Calculated)
03:02AM -15.2210 129.0779 33° Northeast 31,000 -1,500 Level Aus ATC (Calculated)
03:04AM -15.0778 129.1710 33° Northeast  Level Estimated
03:05AM -14.9940 129.2265 33° Northeast  Level FlightAware Approximate
03:05AM -14.9434 129.2617 211° Southwest 31,000  Level Aus ATC (Calculated)
03:05AM -14.8740 129.3076 212° Southwest 31,000 -3,660 Level Aus ATC (Calculated)
03:06AM -14.8046 129.3534 212° Southwest 31,000 -5,040 Level Aus ATC (Calculated)
03:06AM -14.7352 129.3992 212° Southwest 31,000 -6,120 Level Aus ATC (Calculated)
03:07AM -15.0216 129.2128 33° Northeast 416 479 21,800 -5,400 Descending Aus ATC (RADAR)
03:08AM -14.9578 129.2524 31° Northeast 404 465 22,900 1,260 Climbing Aus ATC (RADAR)
03:09AM -14.8690 129.3087 32° Northeast 410 472 23,800 1,020 Climbing Aus ATC (RADAR)
03:10AM -14.7704 129.3747 33° Northeast 425 489 24,900 1,020 Climbing Aus ATC (RADAR)
03:11AM -14.6950 129.4243 32° Northeast 431 496 25,600 960 Climbing Aus ATC (RADAR)
03:11AM -14.6349 129.4642 33° Northeast 441 507 26,200 1,080 Climbing Aus ATC (RADAR)
03:12AM -14.5575 129.5151 32° Northeast 443 510 27,100 1,200 Climbing Aus ATC (RADAR)
03:13AM -14.4442 129.5888 32° Northeast 445 512 28,500 1,260 Climbing Aus ATC (RADAR)
03:14AM -14.3564 129.6468 33° Northeast 451 519 29,600 1,140 Climbing Aus ATC (RADAR)
03:15AM -14.2506 129.7160 32° Northeast 453 521 30,600 720 Climbing Aus ATC (RADAR)
03:16AM -14.1504 129.7814 32° Northeast 468 539 31,000 240 Climbing Aus ATC (RADAR)
03:16AM -14.0839 129.8245 32° Northeast 482 555 31,000  Level Aus ATC (RADAR)
03:17AM -13.9788 129.8952 33° Northeast 491 565 31,000  Level Aus ATC (RADAR)
03:18AM -13.8835 129.9579 33° Northeast 488 562 31,000  Level Aus ATC (RADAR)
03:19AM -13.7688 130.0326 32° Northeast 489 563 31,000  Level Aus ATC (RADAR)
03:20AM -13.6442 130.1137 32° Northeast 491 565 31,000 -720 Level Aus ATC (RADAR)
03:21AM -13.5582 130.1699 32° Northeast 489 563 29,700 -2,100 Descending Aus ATC (RADAR)
03:22AM -13.4937 130.2133 33° Northeast 476 548 28,200 -2,580 Descending Aus ATC (RADAR)
03:22AM -13.4115 130.2658 32° Northeast 464 534 26,300 -2,400 Descending Aus ATC (RADAR)
03:23AM -13.3920 130.2790 32° Northeast 459 528 25,900 -2,460 Descending FlightAware
03:23AM -13.3190 130.3270 33° Northeast 438 504 24,200 -2,460 Descending FlightAware
03:24AM -13.2500 130.3720 32° Northeast 436 502 22,700 -2,340 Descending FlightAware
03:25AM -13.1787 130.4168 32° Northeast 430 495 21,000 -2,280 Descending Aus ATC (RADAR)
03:25AM -13.1740 130.4210 32° Northeast 423 487 21,000 -2,340 Level FlightAware
03:25AM -13.1211 130.4538 32° Northeast 418 481 19,700 -2,280 Descending Aus ATC (RADAR)
03:25AM -13.1010 130.4690 32° Northeast 400 460 19,300 -2,040 Descending FlightAware
03:26AM -13.0511 130.5003 32° Northeast 398 458 18,200 -1,980 Descending Aus ATC (RADAR)
03:26AM -13.0390 130.5080 32° Northeast 377 434 18,000 -2,100 Descending FlightAware
03:27AM -12.9927 130.5379 32° Northeast 373 429 16,800 -1,980 Descending Aus ATC (RADAR)
03:27AM -12.9840 130.5440 32° Northeast 363 418 16,700 -1,920 Descending FlightAware
03:27AM -12.9296 130.5786 32° Northeast 356 410 15,400 -2,040 Descending Aus ATC (RADAR)
03:27AM -12.9190 130.5860 32° Northeast 343 395 15,200 -1,800 Descending FlightAware
03:28AM -12.8640 130.6220 33° Northeast 346 398 14,000 -1,800 Descending FlightAware
03:29AM -12.8110 130.6560 32° Northeast 325 374 12,800 -1,860 Descending FlightAware
03:29AM -12.7706 130.6823 32° Northeast 326 375 11,800 -1,800 Descending Aus ATC (RADAR)
03:29AM -12.7530 130.6930 32° Northeast 310 357 11,500 -1,680 Descending FlightAware
03:30AM -12.7087 130.7222 32° Northeast 314 361 10,400 -1,680 Descending Aus ATC (RADAR)
03:30AM -12.7050 130.7250 32° Northeast 304 350 10,400 -1,500 Level FlightAware
03:31AM -12.6690 130.7480 32° Northeast 305 351 9,600 -1,680 Descending FlightAware
03:31AM -12.6350 130.7580 16° North 305 351 8,900 -1,860 Descending FlightAware
03:32AM -12.5960 130.7470 345° North 300 345 7,900 -1,860 Descending FlightAware
03:32AM -12.5640 130.7280 330° Northwest 301 346 7,200 -1,680 Descending FlightAware
03:32AM -12.5280 130.7060 329° Northwest 285 328 6,400 -1,140 Descending FlightAware
03:33AM -12.5000 130.6900 331° Northwest 266 306 6,200 -660 Descending FlightAware
03:33AM -12.4690 130.6720 330° Northwest 248 285 5,800 -720 Descending FlightAware
03:34AM -12.4530 130.6620 329° Northwest 247 284 5,700 -540 Descending FlightAware
03:34AM -12.4240 130.6490 336° Northwest 231 266 5,400 -780 Descending FlightAware
03:34AM -12.4120 130.6500 North 227 261 5,200 -1,200 Descending FlightAware
03:35AM -12.3820 130.6590 16° North 226 260 4,600 -1,320 Descending FlightAware
03:35AM -12.3580 130.6780 38° Northeast 209 241 3,900 -1,200 Descending FlightAware
03:35AM -12.3550 130.6860 69° East 203 234 3,800 -900 Descending FlightAware
03:36AM -12.3540 130.6950 84° East 200 230 3,600 -1,200 Descending FlightAware
03:36AM -12.3580 130.7140 102° East 191 220 3,200 -840 Descending FlightAware
03:36AM -12.3660 130.7390 108° East 174 200 2,900 -780 Descending FlightAware
03:37AM -12.3730 130.7570 112° Southeast 171 197 2,500 -900 Descending FlightAware
03:37AM -12.3800 130.7790 108° East 155 178 2,100 -900 Descending FlightAware
03:38AM -12.3870 130.7990 110° East 148 170 1,600 -1,140 Descending FlightAware
03:38AM -12.3930 130.8150 111° Southeast 127 146 1,100 -900 Descending FlightAware
03:39AM -12.3980 130.8320 107° East 119 137 800 -660 Descending FlightAware
03:39AM -12.4030 130.8450 111° Southeast 120 138 500 -660 Descending FlightAware
03:39AM -12.4060 130.8540 109° East 118 136 400 -480 Descending FlightAware
03:40AM -12.4100 130.8670 107° East 117 135 200 -420 Descending FlightAware
03:40AM -12.4130 130.8760 109° East 74 85 100 -300 Descending FlightAware
03:41AM -12.4140 130.8790 109° East 9 10 -240 Descending FlightAware
03:41AM -12.4130 130.8800 44° Northeast 15 17  Level FlightAware
03:42AM -12.4110 130.8810 26° Northeast 10 12  Level FlightAware